Time;durP1;ratioP1;P1;durP2;ratioP2;P2;SDS_P1;SDS_P2;PMS_P1;PMS_P2;Temp;Humidity;BMP_temperature;BMP_pressure;BME280_temperature;BME280_humidity;BME280_pressure;Samples;Min_cycle;Max_cycle;Signal;HPM_P1;HPM_P2
2022/05/01 00:00:15;;;;;;;13.70;7.17;;;10.60;78.40;;;;;;5096563;28;20438;-51
2022/05/01 00:02:42;;;;;;;9.97;5.67;;;10.70;66.10;;;;;;5095913;28;20759;-51
2022/05/01 00:05:09;;;;;;;14.33;8.10;;;10.80;55.10;;;;;;5096076;28;20472;-53
2022/05/01 00:07:36;;;;;;;11.97;6.80;;;10.80;49.10;;;;;;5096576;28;20459;-53
2022/05/01 00:10:04;;;;;;;12.67;7.10;;;10.80;39.70;;;;;;5095957;28;20473;-53
2022/05/01 00:12:32;;;;;;;13.23;7.50;;;10.60;64.00;;;;;;5095353;28;20547;-52
2022/05/01 00:14:58;;;;;;;12.63;7.80;;;10.60;74.80;;;;;;5094914;28;20449;-50
2022/05/01 00:17:25;;;;;;;13.57;8.73;;;10.60;88.10;;;;;;5094586;28;20488;-54
2022/05/01 00:19:52;;;;;;;10.70;6.93;;;10.70;84.70;;;;;;5093750;28;20449;-52
2022/05/01 00:22:19;;;;;;;15.63;7.53;;;10.70;76.20;;;;;;5093458;28;20446;-51
2022/05/01 00:24:46;;;;;;;11.57;5.80;;;10.80;56.10;;;;;;5092851;28;20857;-55
2022/05/01 00:27:13;;;;;;;15.30;9.50;;;10.90;49.80;;;;;;5092478;28;20453;-52
2022/05/01 00:29:41;;;;;;;16.47;8.53;;;10.90;46.50;;;;;;5092412;28;20449;-52
2022/05/01 00:32:09;;;;;;;14.10;9.10;;;10.70;52.00;;;;;;5093640;28;20456;-53
2022/05/01 00:37:20;;;;;;;13.27;8.03;;;10.30;99.70;;;;;;5092704;28;20813;-50
2022/05/01 00:39:48;;;;;;;12.53;7.70;;;10.30;99.90;;;;;;5092181;28;20452;-48
2022/05/01 00:42:18;;;;;;;14.80;9.07;;;10.40;99.90;;;;;;5092089;28;20888;-54
2022/05/01 00:44:46;;;;;;;12.27;7.03;;;10.40;99.90;;;;;;5092333;28;20737;-53
2022/05/01 00:47:13;;;;;;;12.63;7.67;;;10.30;99.90;;;;;;5093465;28;20471;-48
2022/05/01 00:49:40;;;;;;;12.87;7.20;;;10.30;99.90;;;;;;5094141;28;20449;-53
2022/05/01 00:52:09;;;;;;;14.17;7.37;;;10.20;99.90;;;;;;5094087;28;20452;-54
2022/05/01 00:54:39;;;;;;;15.23;9.00;;;10.20;99.90;;;;;;5095272;28;20744;-50
2022/05/01 00:57:07;;;;;;;12.10;8.23;;;10.10;99.90;;;;;;5094957;28;20481;-51
2022/05/01 00:59:35;;;;;;;15.53;8.70;;;10.30;99.90;;;;;;5094852;28;20757;-52
2022/05/01 01:02:05;;;;;;;12.20;8.37;;;10.30;99.90;;;;;;5096122;28;20457;-52
2022/05/01 01:04:32;;;;;;;13.90;7.13;;;10.50;99.90;;;;;;5098967;28;20449;-52
2022/05/01 01:06:59;;;;;;;18.27;8.70;;;10.60;90.30;;;;;;5098350;28;20471;-51
2022/05/01 01:09:26;;;;;;;17.20;8.83;;;10.70;67.10;;;;;;5098835;28;20777;-52
2022/05/01 01:12:53;;;;;;;10.80;7.47;;;10.60;53.70;;;;;;5099246;28;20514;-53
2022/05/01 01:14:43;;;;;;;14.93;6.83;;;10.60;80.70;;;;;;5099244;28;20467;-53
2022/05/01 01:17:12;;;;;;;13.83;9.20;;;10.50;75.60;;;;;;5099223;28;20497;-54
2022/05/01 01:19:39;;;;;;;12.10;7.80;;;10.50;62.50;;;;;;5099234;28;20452;-51
2022/05/01 01:22:10;;;;;;;14.90;7.90;;;10.40;77.80;;;;;;5098928;28;20449;-52
2022/05/01 01:24:38;;;;;;;17.00;8.37;;;10.40;93.20;;;;;;5098512;28;20774;-52
2022/05/01 01:27:06;;;;;;;11.80;8.63;;;10.50;92.30;;;;;;5099098;28;20479;-47
2022/05/01 01:32:19;;;;;;;13.50;7.27;;;10.60;58.40;;;;;;5098410;28;20429;-51
2022/05/01 01:34:53;;;;;;;12.67;7.57;;;10.70;53.70;;;;;;5097828;28;20446;-53
2022/05/01 01:37:24;;;;;;;14.37;7.63;;;10.80;52.70;;;;;;5098597;28;20485;-50
2022/05/01 01:39:52;;;;;;;10.67;6.30;;;10.80;48.30;;;;;;5098772;28;20491;-51
2022/05/01 01:42:19;;;;;;;12.50;7.17;;;10.80;38.80;;;;;;5098894;28;20454;-48
2022/05/01 01:44:47;;;;;;;15.37;7.70;;;10.80;26.40;;;;;;5098813;28;20752;-53
2022/05/01 01:47:14;;;;;;;13.60;7.67;;;10.60;43.20;;;;;;5098677;28;20449;-55
2022/05/01 01:49:41;;;;;;;15.40;7.40;;;10.30;65.60;;;;;;5098624;28;20449;-51
2022/05/01 01:52:08;;;;;;;13.73;8.50;;;10.30;94.80;;;;;;5098073;28;20750;-52
2022/05/01 01:54:36;;;;;;;12.30;6.87;;;10.40;87.90;;;;;;5097445;28;20872;-48
2022/05/01 01:57:05;;;;;;;14.53;8.10;;;10.50;71.30;;;;;;5096971;28;20507;-54
2022/05/01 01:59:32;;;;;;;12.67;6.93;;;10.60;52.40;;;;;;5096256;28;20445;-52
2022/05/01 02:01:58;;;;;;;14.90;8.57;;;10.60;57.50;;;;;;5097057;28;20457;-54
2022/05/01 02:04:25;;;;;;;12.17;6.83;;;10.60;48.50;;;;;;5096723;28;20468;-53
2022/05/01 02:06:52;;;;;;;12.80;7.10;;;10.50;48.60;;;;;;5096348;28;20457;-52
2022/05/01 02:09:19;;;;;;;12.30;9.00;;;10.50;59.40;;;;;;5096506;28;20880;-56
2022/05/01 02:11:47;;;;;;;10.53;7.37;;;10.40;63.20;;;;;;5096061;28;21050;-53
2022/05/01 02:14:14;;;;;;;16.97;7.80;;;10.50;64.90;;;;;;5095300;28;20891;-54
2022/05/01 02:16:41;;;;;;;16.17;6.00;;;10.40;70.80;;;;;;5096786;28;20477;-53
2022/05/01 02:19:08;;;;;;;12.27;7.10;;;10.50;70.20;;;;;;5096444;28;20882;-53
2022/05/01 02:21:34;;;;;;;13.50;7.30;;;10.60;42.90;;;;;;5096781;28;20888;-52
2022/05/01 02:24:01;;;;;;;13.70;7.20;;;10.50;35.30;;;;;;5096321;28;20458;-49
2022/05/01 02:26:29;;;;;;;12.10;7.07;;;10.40;52.20;;;;;;5097549;28;20196;-54
2022/05/01 02:28:58;;;;;;;13.90;8.00;;;10.50;56.40;;;;;;5097515;28;20452;-53
2022/05/01 02:31:25;;;;;;;12.47;7.03;;;10.40;66.30;;;;;;5098845;28;20757;-54
2022/05/01 02:33:52;;;;;;;15.60;8.10;;;10.30;85.20;;;;;;5097308;28;20450;-51
2022/05/01 02:36:19;;;;;;;15.93;7.50;;;10.20;90.90;;;;;;5098121;28;20477;-54
2022/05/01 02:38:47;;;;;;;11.97;7.27;;;10.00;95.70;;;;;;5097513;28;20449;-51
2022/05/01 02:41:15;;;;;;;13.17;7.03;;;10.20;99.90;;;;;;5097247;28;20454;-52
2022/05/01 02:43:41;;;;;;;15.13;7.43;;;10.30;92.30;;;;;;5098122;28;20456;-52
2022/05/01 02:46:10;;;;;;;15.87;9.77;;;10.40;70.10;;;;;;5096672;28;20453;-54
2022/05/01 02:48:36;;;;;;;14.80;7.53;;;10.40;68.70;;;;;;5098639;28;20452;-54
2022/05/01 02:51:04;;;;;;;14.10;6.97;;;10.30;65.20;;;;;;5099184;28;20453;-54
2022/05/01 02:53:32;;;;;;;14.33;7.93;;;10.00;96.10;;;;;;5098666;28;20507;-53
2022/05/01 02:56:00;;;;;;;13.70;8.80;;;10.10;99.90;;;;;;5098117;28;20523;-48
2022/05/01 02:58:28;;;;;;;16.03;8.70;;;10.20;96.10;;;;;;5098025;28;20499;-48
2022/05/01 03:00:55;;;;;;;16.37;7.80;;;10.30;88.40;;;;;;5097987;28;20648;-50
2022/05/01 03:03:23;;;;;;;16.37;8.47;;;10.40;65.50;;;;;;5097932;28;20450;-54
2022/05/01 03:05:52;;;;;;;13.83;7.20;;;10.50;58.40;;;;;;5097750;28;20457;-50
2022/05/01 03:08:19;;;;;;;12.00;6.03;;;10.50;51.00;;;;;;5096993;28;20437;-48
2022/05/01 03:10:46;;;;;;;14.00;7.53;;;10.30;46.50;;;;;;5098184;28;20453;-59
2022/05/01 03:13:13;;;;;;;12.83;6.63;;;10.30;72.30;;;;;;5097870;28;20459;-55
2022/05/01 03:15:40;;;;;;;15.13;8.47;;;10.40;67.30;;;;;;5098285;28;20454;-53
2022/05/01 03:23:37;;;;;;;14.10;7.83;;;10.40;54.40;;;;;;5095621;28;20424;-52
2022/05/01 03:26:04;;;;;;;14.97;7.07;;;10.30;51.70;;;;;;5094304;28;20454;-51
2022/05/01 03:28:31;;;;;;;14.93;8.80;;;10.40;55.60;;;;;;5093855;28;20889;-50
2022/05/01 03:30:58;;;;;;;14.33;7.40;;;10.40;54.70;;;;;;5094215;28;20452;-54
2022/05/01 03:33:26;;;;;;;14.07;7.10;;;10.50;46.60;;;;;;5095276;28;20444;-52
2022/05/01 03:35:55;;;;;;;17.67;7.80;;;10.50;42.30;;;;;;5096895;28;20464;-53
2022/05/01 03:38:22;;;;;;;12.47;8.37;;;10.50;39.90;;;;;;5096911;28;20477;-52
2022/05/01 03:40:49;;;;;;;18.10;9.10;;;10.60;39.30;;;;;;5096635;28;20862;-55
2022/05/01 03:43:17;;;;;;;15.07;7.90;;;10.60;25.30;;;;;;5096419;28;20541;-54
2022/05/01 03:45:44;;;;;;;12.60;6.73;;;10.60;22.40;;;;;;5096039;28;20510;-53
2022/05/01 03:48:11;;;;;;;12.80;7.77;;;10.50;23.80;;;;;;5096528;28;20433;-53
2022/05/01 03:50:38;;;;;;;23.33;8.43;;;10.40;42.10;;;;;;5097370;28;20552;-53
2022/05/01 03:53:07;;;;;;;15.53;7.80;;;10.40;33.40;;;;;;5097414;28;20899;-54
2022/05/01 03:55:36;;;;;;;16.83;8.80;;;10.40;46.20;;;;;;5097398;28;20480;-54
2022/05/01 03:58:04;;;;;;;16.70;8.80;;;10.40;45.60;;;;;;5097583;28;21004;-49
2022/05/01 04:00:31;;;;;;;19.83;7.77;;;10.30;52.80;;;;;;5097556;28;20492;-52
2022/05/01 04:02:58;;;;;;;18.10;9.10;;;10.20;57.40;;;;;;5097332;28;20747;-52
2022/05/01 04:05:25;;;;;;;17.17;7.40;;;10.30;71.70;;;;;;5097314;28;20445;-54
2022/05/01 04:07:52;;;;;;;17.83;9.40;;;10.30;72.60;;;;;;5097398;28;20899;-53
2022/05/01 04:10:20;;;;;;;12.77;7.63;;;10.30;55.20;;;;;;5097072;28;20445;-51
2022/05/01 04:12:47;;;;;;;18.70;8.27;;;10.40;54.80;;;;;;5097123;28;20891;-54
2022/05/01 04:15:15;;;;;;;14.00;8.50;;;10.40;45.10;;;;;;5097447;28;20452;-50
2022/05/01 04:17:43;;;;;;;14.77;8.03;;;10.50;41.00;;;;;;5095957;28;20489;-52
2022/05/01 04:20:12;;;;;;;15.73;10.10;;;10.40;24.00;;;;;;5096537;28;20441;-52
2022/05/01 04:22:40;;;;;;;16.23;8.10;;;10.20;56.00;;;;;;5095954;28;20514;-51
2022/05/01 04:25:14;;;;;;;17.67;8.40;;;10.20;56.80;;;;;;5095842;28;20873;-53
2022/05/01 04:27:42;;;;;;;17.60;8.40;;;10.20;55.20;;;;;;5095296;28;20450;-54
2022/05/01 04:30:11;;;;;;;15.50;8.27;;;10.10;78.60;;;;;;5097068;28;20810;-51
2022/05/01 04:32:48;;;;;;;13.90;9.30;;;10.20;86.80;;;;;;5097109;28;20453;-53
2022/05/01 04:35:25;;;;;;;17.00;10.00;;;10.30;59.60;;;;;;5095473;28;20449;-50
2022/05/01 04:37:52;;;;;;;14.57;8.17;;;10.30;50.80;;;;;;5095074;28;20778;-53
2022/05/01 04:40:19;;;;;;;17.70;10.30;;;10.30;43.30;;;;;;5095707;28;20541;-50
2022/05/01 04:42:47;;;;;;;12.03;6.47;;;10.30;48.40;;;;;;5096104;28;20452;-52
2022/05/01 04:45:14;;;;;;;19.27;9.20;;;10.40;47.30;;;;;;5095588;28;20449;-50
2022/05/01 04:47:41;;;;;;;12.50;8.07;;;10.40;32.10;;;;;;5096138;28;20442;-49
2022/05/01 04:50:11;;;;;;;14.30;8.30;;;10.30;29.30;;;;;;5095933;28;20445;-49
2022/05/01 04:52:38;;;;;;;10.87;6.70;;;10.40;44.00;;;;;;5096133;28;20457;-50
2022/05/01 04:55:07;;;;;;;15.37;7.10;;;10.40;36.80;;;;;;5094823;28;20457;-51
2022/05/01 04:57:33;;;;;;;11.40;7.03;;;10.50;22.80;;;;;;5094963;28;20485;-48
2022/05/01 05:00:02;;;;;;;15.03;5.87;;;10.50;24.60;;;;;;5093995;28;20452;-52
2022/05/01 05:02:36;;;;;;;22.57;8.77;;;10.50;24.90;;;;;;5093620;28;20450;-52
2022/05/01 05:05:03;;;;;;;11.13;6.60;;;10.50;20.00;;;;;;5094575;28;20899;-52
2022/05/01 05:07:30;;;;;;;11.30;6.13;;;10.60;18.50;;;;;;5095368;28;21090;-50
2022/05/01 05:09:56;;;;;;;10.70;6.20;;;10.50;11.80;;;;;;5095734;28;20460;-55
2022/05/01 05:12:23;;;;;;;12.37;7.00;;;10.50;20.60;;;;;;5095219;28;20449;-55
2022/05/01 05:14:51;;;;;;;13.87;7.83;;;10.40;13.10;;;;;;5095364;28;20788;-53
2022/05/01 05:17:20;;;;;;;12.10;7.50;;;10.30;34.90;;;;;;5095195;28;20492;-53
2022/05/01 05:19:47;;;;;;;12.57;6.60;;;10.30;47.90;;;;;;5094805;28;20445;-52
2022/05/01 05:22:14;;;;;;;18.93;9.00;;;10.40;41.40;;;;;;5095063;28;20555;-53
2022/05/01 05:24:41;;;;;;;14.67;7.77;;;10.50;32.10;;;;;;5094991;28;20533;-53
2022/05/01 05:27:11;;;;;;;14.57;7.83;;;10.50;24.10;;;;;;5095569;28;20567;-53
2022/05/01 05:29:38;;;;;;;9.43;7.00;;;10.60;6.90;;;;;;5095754;28;20802;-53
2022/05/01 05:32:06;;;;;;;12.57;7.40;;;10.70;2.30;;;;;;5095634;28;20888;-48
2022/05/01 05:34:34;;;;;;;11.80;7.20;;;10.60;3.00;;;;;;5096231;28;20451;-53
2022/05/01 05:37:01;;;;;;;16.67;8.17;;;10.50;17.00;;;;;;5096245;28;20484;-50
2022/05/01 05:39:28;;;;;;;11.77;7.03;;;10.50;19.00;;;;;;5096489;28;20463;-54
2022/05/01 05:41:55;;;;;;;12.70;7.67;;;10.50;11.50;;;;;;5095691;28;20563;-53
2022/05/01 05:44:22;;;;;;;16.30;7.33;;;10.40;10.60;;;;;;5094861;28;20456;-52
2022/05/01 05:46:49;;;;;;;15.43;7.47;;;10.40;23.20;;;;;;5094761;28;20720;-52
2022/05/01 05:49:16;;;;;;;15.13;7.47;;;10.40;30.90;;;;;;5097534;28;20441;-51
2022/05/01 05:51:44;;;;;;;12.83;7.73;;;10.50;25.60;;;;;;5097176;28;20888;-50
2022/05/01 05:54:11;;;;;;;13.20;7.90;;;10.60;21.70;;;;;;5097383;28;20528;-51
2022/05/01 05:56:38;;;;;;;11.63;6.67;;;10.60;12.20;;;;;;5097451;28;20453;-53
2022/05/01 05:59:04;;;;;;;14.30;8.40;;;10.60;16.00;;;;;;5098266;28;20479;-54
2022/05/01 06:01:32;;;;;;;14.23;7.83;;;10.50;9.80;;;;;;5096649;28;20453;-54
2022/05/01 06:03:59;;;;;;;11.93;7.20;;;10.60;17.80;;;;;;5095966;28;20459;-56
2022/05/01 06:06:26;;;;;;;15.67;7.77;;;10.60;6.10;;;;;;5096509;28;20453;-53
2022/05/01 06:08:54;;;;;;;19.70;9.37;;;10.70;6.00;;;;;;5096410;28;20744;-54
2022/05/01 06:11:20;;;;;;;14.50;7.60;;;10.70;1.00;;;;;;5097142;28;20460;-53
2022/05/01 06:13:47;;;;;;;14.47;7.90;;;10.70;1.00;;;;;;5096470;28;20445;-49
2022/05/01 06:16:14;;;;;;;12.30;7.20;;;10.70;5.90;;;;;;5097718;28;20754;-49
2022/05/01 06:18:41;;;;;;;13.87;7.50;;;10.60;6.40;;;;;;5095593;28;20489;-50
2022/05/01 06:21:08;;;;;;;12.87;7.13;;;10.70;4.90;;;;;;5095254;28;20919;-48
2022/05/01 06:23:36;;;;;;;11.87;7.27;;;10.80;1.00;;;;;;5095110;28;20455;-50
2022/05/01 06:26:05;;;;;;;12.77;7.33;;;10.80;1.00;;;;;;5095648;28;20442;-52
2022/05/01 06:28:32;;;;;;;13.40;7.87;;;10.90;1.00;;;;;;5095038;28;20453;-50
2022/05/01 06:31:01;;;;;;;12.50;6.53;;;10.80;1.00;;;;;;5094639;28;20446;-51
2022/05/01 06:33:29;;;;;;;14.70;8.20;;;10.80;1.00;;;;;;5094824;28;20551;-54
2022/05/01 06:35:56;;;;;;;13.80;8.67;;;10.90;1.00;;;;;;5095830;28;20449;-48
2022/05/01 06:38:23;;;;;;;13.70;7.40;;;10.80;1.00;;;;;;5093953;28;20485;-55
2022/05/01 06:40:50;;;;;;;11.30;7.10;;;10.80;1.00;;;;;;5095163;28;20464;-52
2022/05/01 06:43:19;;;;;;;12.20;6.60;;;10.90;1.00;;;;;;5095885;28;20990;-54
2022/05/01 06:45:46;;;;;;;11.30;6.60;;;10.90;1.00;;;;;;5096809;28;20820;-54
2022/05/01 06:48:13;;;;;;;11.30;7.83;;;11.00;1.00;;;;;;5095632;28;20448;-49
2022/05/01 06:50:40;;;;;;;14.53;8.00;;;11.00;1.00;;;;;;5096800;28;20442;-51
2022/05/01 06:53:08;;;;;;;14.13;7.30;;;11.00;1.00;;;;;;5096090;28;20480;-52
2022/05/01 06:55:35;;;;;;;12.00;6.20;;;11.00;1.00;;;;;;5095697;28;20556;-52
2022/05/01 06:58:01;;;;;;;14.33;6.93;;;11.10;1.00;;;;;;5095684;28;20762;-51
2022/05/01 07:00:30;;;;;;;15.00;7.20;;;11.20;1.00;;;;;;5094397;28;20446;-50
2022/05/01 07:02:59;;;;;;;11.10;5.30;;;11.40;1.00;;;;;;5094406;28;20454;-54
2022/05/01 07:05:26;;;;;;;11.80;7.87;;;11.60;1.00;;;;;;5093026;28;20890;-52
2022/05/01 07:07:54;;;;;;;12.90;5.23;;;11.60;1.00;;;;;;5092803;28;20561;-49
2022/05/01 07:10:23;;;;;;;10.30;6.23;;;11.60;1.00;;;;;;5091163;28;20540;-52
2022/05/01 07:12:50;;;;;;;9.20;5.60;;;11.70;1.00;;;;;;5092406;28;20453;-51
2022/05/01 07:15:17;;;;;;;14.37;6.70;;;11.80;1.00;;;;;;5092844;28;20880;-53
2022/05/01 07:17:45;;;;;;;8.70;5.87;;;11.90;1.00;;;;;;5092018;28;20503;-56
2022/05/01 07:20:12;;;;;;;9.80;6.07;;;11.90;1.00;;;;;;5091875;28;20448;-49
2022/05/01 07:22:39;;;;;;;11.20;6.80;;;12.00;1.00;;;;;;5092756;28;20545;-52
2022/05/01 07:25:07;;;;;;;10.30;6.07;;;12.00;1.00;;;;;;5093662;28;20748;-54
2022/05/01 07:27:36;;;;;;;12.50;5.70;;;12.00;1.00;;;;;;5094951;28;20434;-54
2022/05/01 07:30:03;;;;;;;8.63;5.97;;;12.10;1.00;;;;;;5095517;28;20441;-51
2022/05/01 07:32:30;;;;;;;10.23;5.60;;;12.10;99.90;;;;;;5094737;28;20452;-53
2022/05/01 07:34:58;;;;;;;13.30;7.33;;;12.10;99.90;;;;;;5093952;28;20678;-58
2022/05/01 07:37:26;;;;;;;12.33;6.30;;;11.90;1.00;;;;;;5095295;28;20532;-52
2022/05/01 07:39:54;;;;;;;12.10;6.23;;;12.00;1.00;;;;;;5096131;28;20456;-53
2022/05/01 07:42:23;;;;;;;10.67;5.67;;;12.00;1.00;;;;;;5096312;28;20734;-48
2022/05/01 07:44:50;;;;;;;9.03;5.63;;;12.00;1.00;;;;;;5096621;28;20807;-48
2022/05/01 07:47:16;;;;;;;9.60;5.50;;;11.90;1.00;;;;;;5096546;28;20451;-53
2022/05/01 07:49:43;;;;;;;9.70;5.50;;;11.90;1.00;;;;;;5093978;28;20446;-48
2022/05/01 07:52:12;;;;;;;9.37;5.60;;;12.00;99.90;;;;;;5094543;28;20446;-50
2022/05/01 07:54:39;;;;;;;7.87;5.17;;;12.10;99.90;;;;;;5094833;28;20453;-48
2022/05/01 07:57:07;;;;;;;7.93;5.40;;;12.20;99.90;;;;;;5094473;28;20452;-51
2022/05/01 07:59:33;;;;;;;7.00;4.20;;;12.30;99.90;;;;;;5095107;28;20760;-53
2022/05/01 08:02:00;;;;;;;9.80;5.80;;;12.40;93.40;;;;;;5093154;28;20452;-53
2022/05/01 08:04:29;;;;;;;9.30;4.67;;;12.60;1.00;;;;;;5093880;28;20454;-52
2022/05/01 08:06:56;;;;;;;7.20;4.67;;;12.70;1.00;;;;;;5093611;28;20465;-52
2022/05/01 08:09:25;;;;;;;6.30;3.83;;;12.80;1.00;;;;;;5093740;28;20445;-52
2022/05/01 08:11:52;;;;;;;8.63;4.13;;;12.80;99.90;;;;;;5093573;28;20447;-51
2022/05/01 08:14:20;;;;;;;7.17;4.20;;;12.90;99.90;;;;;;5093455;28;20453;-52
2022/05/01 08:16:47;;;;;;;11.23;4.73;;;12.90;41.20;;;;;;5093783;28;20441;-52
2022/05/01 08:21:59;;;;;;;11.27;3.80;;;13.00;99.90;;;;;;5095064;28;20436;-55
2022/05/01 08:24:28;;;;;;;6.67;4.33;;;13.00;99.90;;;;;;5094399;28;20453;-52
2022/05/01 08:26:54;;;;;;;8.63;5.23;;;13.10;99.90;;;;;;5094536;28;20437;-53
2022/05/01 08:29:21;;;;;;;6.23;3.50;;;13.10;1.00;;;;;;5094565;28;20523;-54
2022/05/01 08:31:48;;;;;;;5.60;4.00;;;13.10;1.00;;;;;;5095824;28;20874;-54
2022/05/01 08:34:16;;;;;;;6.50;3.63;;;13.00;1.00;;;;;;5094906;28;20844;-51
2022/05/01 08:36:45;;;;;;;8.43;5.13;;;13.00;99.90;;;;;;5095359;28;20450;-51
2022/05/01 08:39:12;;;;;;;7.97;4.43;;;13.10;1.00;;;;;;5095036;28;20477;-50
2022/05/01 08:41:45;;;;;;;9.30;5.70;;;13.10;1.00;;;;;;5094680;28;20468;-54
2022/05/01 08:44:16;;;;;;;16.60;10.67;;;13.10;1.00;;;;;;5093979;28;20464;-54
2022/05/01 08:47:00;;;;;;;18.47;10.17;;;13.40;1.00;;;;;;5094658;28;20457;-54
2022/05/01 08:49:29;;;;;;;12.97;8.03;;;13.50;99.90;;;;;;5095907;28;20450;-55
2022/05/01 08:51:56;;;;;;;6.00;3.70;;;13.60;99.90;;;;;;5095407;28;20452;-53
2022/05/01 08:54:25;;;;;;;7.00;3.50;;;13.80;1.00;;;;;;5095636;28;20704;-49
2022/05/01 08:56:53;;;;;;;6.87;4.63;;;13.70;1.00;;;;;;5094950;28;20453;-55
2022/05/01 08:59:20;;;;;;;5.43;3.03;;;13.70;1.00;;;;;;5092457;28;20491;-52
2022/05/01 09:01:48;;;;;;;6.93;4.37;;;13.50;1.00;;;;;;5093061;28;20502;-54
2022/05/01 09:04:15;;;;;;;8.07;3.90;;;13.60;99.90;;;;;;5093362;28;20453;-51
2022/05/01 09:06:43;;;;;;;5.50;3.50;;;13.80;99.90;;;;;;5092233;28;20445;-54
2022/05/01 09:09:12;;;;;;;4.93;2.87;;;13.90;1.00;;;;;;5093901;28;20466;-50
2022/05/01 09:14:26;;;;;;;6.47;2.70;;;13.70;1.00;;;;;;5093864;28;20899;-53
2022/05/01 09:17:12;;;;;;;7.30;3.23;;;13.70;1.00;;;;;;5094160;28;20446;-52
2022/05/01 09:19:39;;;;;;;3.87;2.30;;;13.70;1.00;;;;;;5094446;28;20485;-55
2022/05/01 09:22:07;;;;;;;7.10;4.17;;;13.40;1.00;;;;;;5095282;28;20450;-55
2022/05/01 09:24:34;;;;;;;4.97;3.20;;;13.20;1.00;;;;;;5096966;28;20568;-54
2022/05/01 09:27:01;;;;;;;7.30;4.73;;;13.20;99.90;;;;;;5098191;28;20847;-54
2022/05/01 09:29:34;;;;;;;5.47;3.93;;;13.40;99.90;;;;;;5097354;28;20447;-54
2022/05/01 09:32:03;;;;;;;5.00;3.70;;;13.50;1.00;;;;;;5095950;28;20456;-54
2022/05/01 09:34:32;;;;;;;4.43;3.00;;;13.60;1.00;;;;;;5089448;28;20449;-53
2022/05/01 09:37:01;;;;;;;5.20;4.03;;;13.80;1.00;;;;;;5097362;28;20560;-51
2022/05/01 09:39:29;;;;;;;5.27;3.37;;;13.90;1.00;;;;;;5095293;28;20568;-53
2022/05/01 09:42:13;;;;;;;6.30;3.50;;;13.80;1.00;;;;;;5096992;28;20449;-50
2022/05/01 09:44:41;;;;;;;8.50;4.63;;;13.80;1.00;;;;;;5097306;28;20457;-53
2022/05/01 09:47:08;;;;;;;4.97;2.67;;;13.90;1.00;;;;;;5095960;28;20897;-52
2022/05/01 09:49:47;;;;;;;4.23;2.70;;;13.90;1.00;;;;;;5096857;28;20451;-53
2022/05/01 09:52:14;;;;;;;6.67;3.87;;;13.80;1.00;;;;;;5095930;28;20506;-53
2022/05/01 09:54:41;;;;;;;7.83;3.63;;;14.00;1.00;;;;;;5094904;28;20934;-53
2022/05/01 09:57:23;;;;;;;5.40;2.93;;;14.20;99.90;;;;;;5095974;28;20460;-51
2022/05/01 09:59:51;;;;;;;14.00;7.80;;;14.30;99.90;;;;;;5093679;28;20476;-50
2022/05/01 10:02:29;;;;;;;10.03;4.13;;;14.40;99.90;;;;;;5094060;28;20524;-52
2022/05/01 10:04:57;;;;;;;7.60;4.93;;;14.60;99.90;;;;;;5093117;28;20445;-55
2022/05/01 10:07:26;;;;;;;5.80;3.70;;;14.60;99.90;;;;;;5095715;28;20476;-53
2022/05/01 10:09:54;;;;;;;6.07;3.73;;;14.30;99.90;;;;;;5096487;28;20773;-51
2022/05/01 10:12:24;;;;;;;8.10;4.63;;;14.20;99.90;;;;;;5097330;28;20454;-50
2022/05/01 10:14:53;;;;;;;6.20;3.73;;;14.30;99.90;;;;;;5093191;28;20570;-53
2022/05/01 10:17:20;;;;;;;4.77;3.03;;;13.60;99.90;;;;;;5094530;28;20479;-53
2022/05/01 10:19:50;;;;;;;6.23;3.73;;;13.50;99.90;;;;;;5095684;28;20473;-50
2022/05/01 10:22:18;;;;;;;5.13;3.10;;;13.50;99.90;;;;;;5091067;28;20914;-54
2022/05/01 10:24:45;;;;;;;4.63;2.73;;;13.90;99.90;;;;;;5096469;28;20449;-54
2022/05/01 10:27:24;;;;;;;3.63;2.10;;;14.50;99.90;;;;;;5094632;28;20450;-52
2022/05/01 10:33:19;;;;;;;3.43;2.43;;;15.20;1.00;;;;;;5095970;28;20471;-54
2022/05/01 10:36:07;;;;;;;6.23;2.70;;;15.20;1.00;;;;;;5090491;28;20430;-53
2022/05/01 10:38:45;;;;;;;3.27;1.93;;;15.30;1.00;;;;;;5090699;28;20489;-52
2022/05/01 10:41:12;;;;;;;3.50;1.80;;;15.40;1.00;;;;;;5075159;28;20456;-50
2022/05/01 10:43:39;;;;;;;6.03;2.87;;;15.30;1.00;;;;;;5091984;28;20446;-52
2022/05/01 10:46:31;;;;;;;5.70;2.43;;;15.50;1.00;;;;;;5095150;28;20975;-52
2022/05/01 10:49:03;;;;;;;5.60;3.40;;;15.50;1.00;;;;;;5095004;28;20565;-49
2022/05/01 10:51:47;;;;;;;3.90;2.77;;;15.00;1.00;;;;;;5081212;28;20537;-52
2022/05/01 10:54:34;;;;;;;5.93;3.00;;;15.10;1.00;;;;;;5095261;28;20738;-51
2022/05/01 10:57:15;;;;;;;4.57;2.60;;;15.20;1.00;;;;;;5077547;28;20461;-50
2022/05/01 10:59:47;;;;;;;4.27;2.23;;;14.80;1.00;;;;;;5092414;28;20477;-52
2022/05/01 11:02:30;;;;;;;7.07;2.87;;;14.50;1.00;;;;;;5093697;28;20456;-52
2022/05/01 11:04:59;;;;;;;4.63;2.60;;;14.40;1.00;;;;;;5094435;28;20480;-51
2022/05/01 11:07:27;;;;;;;4.67;2.50;;;14.60;1.00;;;;;;5094925;28;20464;-51
2022/05/01 11:09:57;;;;;;;4.33;2.07;;;14.90;1.00;;;;;;5084921;28;20434;-52
2022/05/01 11:12:25;;;;;;;6.27;3.40;;;15.10;1.00;;;;;;5094508;28;20459;-52
2022/05/01 11:14:59;;;;;;;3.53;2.30;;;15.40;1.00;;;;;;5094485;28;20532;-54
2022/05/01 11:17:56;;;;;;;6.90;3.00;;;15.70;1.00;;;;;;5088020;28;20474;-55
2022/05/01 11:20:35;;;;;;;4.00;2.50;;;16.00;1.00;;;;;;5086852;28;20773;-53
2022/05/01 11:23:29;;;;;;;4.50;2.73;;;16.20;1.00;;;;;;5095054;28;20919;-52
2022/05/01 11:26:07;;;;;;;4.70;3.73;;;16.40;1.00;;;;;;5092142;28;20461;-55
2022/05/01 11:28:43;;;;;;;5.40;2.37;;;15.60;1.00;;;;;;5075942;28;20706;-52
2022/05/01 11:31:44;;;;;;;5.40;2.40;;;15.30;1.00;;;;;;5094053;28;20892;-56
2022/05/01 11:35:03;;;;;;;3.10;1.87;;;15.20;1.00;;;;;;5095254;28;20441;-55
2022/05/01 11:37:46;;;;;;;5.83;2.10;;;15.40;1.00;;;;;;5074733;28;20477;-54
2022/05/01 11:40:27;;;;;;;5.50;2.60;;;15.80;1.00;;;;;;5087714;28;20948;-55
2022/05/01 11:43:15;;;;;;;3.53;1.67;;;15.60;1.00;;;;;;5096105;28;20460;-54
2022/05/01 11:45:42;;;;;;;6.37;2.57;;;15.50;1.00;;;;;;5085979;28;20452;-52
2022/05/01 11:48:13;;;;;;;4.27;2.33;;;15.60;1.00;;;;;;5093647;28;20472;-53
2022/05/01 11:50:41;;;;;;;3.17;1.90;;;15.90;1.00;;;;;;5073619;28;20446;-53
2022/05/01 11:53:18;;;;;;;5.30;1.87;;;16.10;1.00;;;;;;5084492;28;20456;-48
2022/05/01 12:04:24;;;;;;;3.03;2.10;;;16.40;1.00;;;;;;5074225;28;20430;-52
2022/05/01 12:07:00;;;;;;;4.17;2.40;;;16.40;1.00;;;;;;5074358;28;20885;-54
2022/05/01 12:09:29;;;;;;;3.33;2.17;;;16.20;1.00;;;;;;5073935;28;20442;-53
2022/05/01 12:11:56;;;;;;;2.90;1.83;;;16.20;1.00;;;;;;5073117;28;20527;-53
2022/05/01 12:14:23;;;;;;;3.20;1.70;;;16.30;1.00;;;;;;5073969;28;20477;-55
2022/05/01 12:16:50;;;;;;;4.83;2.33;;;16.50;1.00;;;;;;5074517;28;20446;-51
2022/05/01 12:19:17;;;;;;;2.60;1.90;;;16.60;1.00;;;;;;5074786;28;20478;-53
2022/05/01 12:21:44;;;;;;;2.10;1.50;;;16.40;1.00;;;;;;5075948;28;20489;-55
2022/05/01 12:24:12;;;;;;;3.70;2.37;;;16.30;1.00;;;;;;5070596;28;20457;-56
2022/05/01 12:26:54;;;;;;;3.03;1.70;;;16.40;1.00;;;;;;5086261;28;20456;-51
2022/05/01 12:29:22;;;;;;;3.03;2.10;;;16.50;1.00;;;;;;5082342;28;20471;-56
2022/05/01 12:32:06;;;;;;;3.07;2.20;;;16.70;1.00;;;;;;5079901;28;20907;-52
2022/05/01 12:34:34;;;;;;;8.53;2.47;;;16.40;1.00;;;;;;5092091;28;20978;-55
2022/05/01 12:37:02;;;;;;;4.10;2.30;;;16.20;1.00;;;;;;5090727;28;20449;-52
2022/05/01 12:39:30;;;;;;;3.27;1.50;;;16.10;1.00;;;;;;5080928;28;20468;-52
2022/05/01 12:45:08;;;;;;;4.87;2.33;;;16.40;1.00;;;;;;5087472;28;20425;-56
2022/05/01 12:47:37;;;;;;;4.20;2.67;;;16.60;1.00;;;;;;5084624;28;20450;-55
2022/05/01 12:50:08;;;;;;;3.70;1.80;;;17.00;1.00;;;;;;5087236;28;20495;-56
2022/05/01 12:52:36;;;;;;;3.30;2.13;;;17.00;1.00;;;;;;5093021;28;20738;-57
2022/05/01 12:55:16;;;;;;;2.97;1.90;;;17.10;1.00;;;;;;5092323;28;20438;-56
2022/05/01 12:57:51;;;;;;;2.70;1.70;;;17.00;1.00;;;;;;5078494;28;20462;-56
2022/05/01 13:00:34;;;;;;;5.57;3.37;;;17.10;1.00;;;;;;5081578;28;20479;-57
2022/05/01 13:03:15;;;;;;;2.23;1.70;;;17.30;1.00;;;;;;5092185;28;20457;-58
2022/05/01 13:05:43;;;;;;;2.13;1.53;;;17.80;1.00;;;;;;5090293;28;21481;-54
2022/05/01 13:08:19;;;;;;;4.40;1.87;;;17.90;1.00;;;;;;5082031;28;20446;-57
2022/05/01 13:11:13;;;;;;;5.30;2.43;;;18.00;1.00;;;;;;5092967;28;20467;-57
2022/05/01 13:13:50;;;;;;;6.37;3.43;;;18.20;1.00;;;;;;5091917;28;20446;-55
2022/05/01 13:16:21;;;;;;;3.93;2.37;;;18.30;1.00;;;;;;5085997;28;20441;-58
2022/05/01 13:18:48;;;;;;;2.47;1.50;;;18.60;1.00;;;;;;5091240;28;20540;-58
2022/05/01 13:21:18;;;;;;;3.37;1.63;;;19.10;1.00;;;;;;5092232;28;20477;-59
2022/05/01 13:23:48;;;;;;;1.57;1.30;;;19.50;1.00;;;;;;5090856;28;20445;-58
2022/05/01 13:26:15;;;;;;;2.53;1.67;;;19.80;1.00;;;;;;5089777;28;21130;-57
2022/05/01 13:28:42;;;;;;;2.57;1.30;;;19.60;1.00;;;;;;5091971;28;20446;-59